Terminal Aerodrome Forecast
Issued by NWS

Current Version | Previous Version | Graphics & Text | Print | Product List | Glossary On
Versions: 1 2 3 4 5 6 7 8 9 10 11 12 13 14 15 16 17 18 19 20 21
000
FTUS41 KILN 201700
TAFLCK
TAF
KLCK 201737Z 2018/2118 22010KT P6SM SCT030
     FM210000 25004KT P6SM SCT250
     FM211200 23004KT P6SM VCTS BKN040CB
     FM211600 24007KT P6SM SCT040 BKN150=

USA.gov is the U.S. government's official web portal to all federal, state and local government web resources and services.